sensor_id;sensor_type;location;lat;lon;timestamp;temperature;humidity
43183;DHT22;28802;38.578;-0.066;2023-08-24T00:00:54;25.40;99.90
43183;DHT22;28802;38.578;-0.066;2023-08-24T00:03:19;25.40;99.90
43183;DHT22;28802;38.578;-0.066;2023-08-24T00:05:50;25.30;99.90
43183;DHT22;28802;38.578;-0.066;2023-08-24T00:08:17;25.30;99.90
43183;DHT22;28802;38.578;-0.066;2023-08-24T00:10:43;25.30;99.90
43183;DHT22;28802;38.578;-0.066;2023-08-24T00:13:12;25.30;99.90
43183;DHT22;28802;38.578;-0.066;2023-08-24T00:15:38;25.30;99.90
43183;DHT22;28802;38.578;-0.066;2023-08-24T00:18:07;25.20;99.90
43183;DHT22;28802;38.578;-0.066;2023-08-24T00:20:33;25.20;99.90
43183;DHT22;28802;38.578;-0.066;2023-08-24T00:23:00;25.30;99.90
43183;DHT22;28802;38.578;-0.066;2023-08-24T00:25:26;25.20;99.90
43183;DHT22;28802;38.578;-0.066;2023-08-24T00:27:55;25.20;99.90
43183;DHT22;28802;38.578;-0.066;2023-08-24T00:30:22;25.20;99.90
43183;DHT22;28802;38.578;-0.066;2023-08-24T00:32:49;25.20;99.90
43183;DHT22;28802;38.578;-0.066;2023-08-24T00:35:16;25.30;99.90
43183;DHT22;28802;38.578;-0.066;2023-08-24T00:37:41;25.30;99.90
43183;DHT22;28802;38.578;-0.066;2023-08-24T00:40:08;25.30;99.90
43183;DHT22;28802;38.578;-0.066;2023-08-24T00:42:42;25.30;99.90
43183;DHT22;28802;38.578;-0.066;2023-08-24T00:45:10;25.30;99.90
43183;DHT22;28802;38.578;-0.066;2023-08-24T00:47:41;25.30;99.90
43183;DHT22;28802;38.578;-0.066;2023-08-24T00:50:08;25.30;99.90
43183;DHT22;28802;38.578;-0.066;2023-08-24T00:52:37;25.30;99.90
43183;DHT22;28802;38.578;-0.066;2023-08-24T00:55:05;25.30;99.90
43183;DHT22;28802;38.578;-0.066;2023-08-24T00:57:32;25.20;99.90
43183;DHT22;28802;38.578;-0.066;2023-08-24T01:00:03;25.20;99.90
43183;DHT22;28802;38.578;-0.066;2023-08-24T01:02:31;25.10;99.90
43183;DHT22;28802;38.578;-0.066;2023-08-24T01:04:58;25.10;99.90
43183;DHT22;28802;38.578;-0.066;2023-08-24T01:07:24;25.10;99.90
43183;DHT22;28802;38.578;-0.066;2023-08-24T01:09:50;25.10;99.90
43183;DHT22;28802;38.578;-0.066;2023-08-24T01:12:32;25.00;99.90
43183;DHT22;28802;38.578;-0.066;2023-08-24T01:17:32;24.90;99.90
43183;DHT22;28802;38.578;-0.066;2023-08-24T01:19:59;24.80;99.90
43183;DHT22;28802;38.578;-0.066;2023-08-24T01:22:37;24.90;99.90
43183;DHT22;28802;38.578;-0.066;2023-08-24T01:25:16;24.90;99.90
43183;DHT22;28802;38.578;-0.066;2023-08-24T01:27:43;24.90;99.90
43183;DHT22;28802;38.578;-0.066;2023-08-24T01:30:09;24.90;99.90
43183;DHT22;28802;38.578;-0.066;2023-08-24T01:32:36;24.90;99.90
43183;DHT22;28802;38.578;-0.066;2023-08-24T01:35:05;24.90;99.90
43183;DHT22;28802;38.578;-0.066;2023-08-24T01:37:35;24.90;99.90
43183;DHT22;28802;38.578;-0.066;2023-08-24T01:40:10;24.80;99.90
43183;DHT22;28802;38.578;-0.066;2023-08-24T01:45:18;24.70;99.90
43183;DHT22;28802;38.578;-0.066;2023-08-24T01:47:48;24.70;99.90
43183;DHT22;28802;38.578;-0.066;2023-08-24T01:50:15;24.60;99.90
43183;DHT22;28802;38.578;-0.066;2023-08-24T01:52:42;24.70;99.90
43183;DHT22;28802;38.578;-0.066;2023-08-24T01:55:08;24.70;99.90
43183;DHT22;28802;38.578;-0.066;2023-08-24T01:57:34;24.70;99.90
43183;DHT22;28802;38.578;-0.066;2023-08-24T02:00:00;24.60;99.90
43183;DHT22;28802;38.578;-0.066;2023-08-24T02:02:25;24.60;99.90
43183;DHT22;28802;38.578;-0.066;2023-08-24T02:04:51;24.60;99.90
43183;DHT22;28802;38.578;-0.066;2023-08-24T02:07:17;24.60;99.90
43183;DHT22;28802;38.578;-0.066;2023-08-24T02:09:43;24.60;99.90
43183;DHT22;28802;38.578;-0.066;2023-08-24T02:12:09;24.70;99.90
43183;DHT22;28802;38.578;-0.066;2023-08-24T02:14:35;24.70;99.90
43183;DHT22;28802;38.578;-0.066;2023-08-24T02:17:01;24.80;99.90
43183;DHT22;28802;38.578;-0.066;2023-08-24T02:19:27;24.80;99.90
43183;DHT22;28802;38.578;-0.066;2023-08-24T02:21:52;24.80;99.90
43183;DHT22;28802;38.578;-0.066;2023-08-24T02:24:18;24.80;99.90
43183;DHT22;28802;38.578;-0.066;2023-08-24T02:26:44;24.80;99.90
43183;DHT22;28802;38.578;-0.066;2023-08-24T02:29:10;24.80;99.90
43183;DHT22;28802;38.578;-0.066;2023-08-24T02:31:36;24.80;99.90
43183;DHT22;28802;38.578;-0.066;2023-08-24T02:34:02;24.80;99.90
43183;DHT22;28802;38.578;-0.066;2023-08-24T02:36:28;24.60;99.90
43183;DHT22;28802;38.578;-0.066;2023-08-24T02:38:54;24.60;99.90
43183;DHT22;28802;38.578;-0.066;2023-08-24T02:41:20;24.60;99.90
43183;DHT22;28802;38.578;-0.066;2023-08-24T02:43:46;24.50;99.90
43183;DHT22;28802;38.578;-0.066;2023-08-24T02:46:12;24.50;99.90
43183;DHT22;28802;38.578;-0.066;2023-08-24T02:48:38;24.50;99.90
43183;DHT22;28802;38.578;-0.066;2023-08-24T02:51:04;24.50;99.90
43183;DHT22;28802;38.578;-0.066;2023-08-24T02:53:30;24.50;99.90
43183;DHT22;28802;38.578;-0.066;2023-08-24T02:55:57;24.50;99.90
43183;DHT22;28802;38.578;-0.066;2023-08-24T02:58:23;24.50;99.90
43183;DHT22;28802;38.578;-0.066;2023-08-24T03:00:49;24.50;99.90
43183;DHT22;28802;38.578;-0.066;2023-08-24T03:03:15;24.50;99.90
43183;DHT22;28802;38.578;-0.066;2023-08-24T03:05:58;24.60;99.90
43183;DHT22;28802;38.578;-0.066;2023-08-24T03:08:26;24.60;99.90
43183;DHT22;28802;38.578;-0.066;2023-08-24T03:10:52;24.50;99.90
43183;DHT22;28802;38.578;-0.066;2023-08-24T03:13:18;24.50;99.90
43183;DHT22;28802;38.578;-0.066;2023-08-24T03:15:44;24.40;99.90
43183;DHT22;28802;38.578;-0.066;2023-08-24T03:18:16;24.40;99.90
43183;DHT22;28802;38.578;-0.066;2023-08-24T03:20:43;24.40;99.90
43183;DHT22;28802;38.578;-0.066;2023-08-24T03:23:09;24.40;99.90
43183;DHT22;28802;38.578;-0.066;2023-08-24T03:25:40;24.40;99.90
43183;DHT22;28802;38.578;-0.066;2023-08-24T03:28:08;24.50;99.90
43183;DHT22;28802;38.578;-0.066;2023-08-24T03:30:36;24.40;99.90
43183;DHT22;28802;38.578;-0.066;2023-08-24T03:33:02;24.30;99.90
43183;DHT22;28802;38.578;-0.066;2023-08-24T03:35:32;24.30;99.90
43183;DHT22;28802;38.578;-0.066;2023-08-24T03:37:59;24.30;99.90
43183;DHT22;28802;38.578;-0.066;2023-08-24T03:40:25;24.30;99.90
43183;DHT22;28802;38.578;-0.066;2023-08-24T03:42:52;24.30;99.90
43183;DHT22;28802;38.578;-0.066;2023-08-24T03:45:19;24.30;99.90
43183;DHT22;28802;38.578;-0.066;2023-08-24T03:47:45;24.30;99.90
43183;DHT22;28802;38.578;-0.066;2023-08-24T03:50:11;24.30;99.90
43183;DHT22;28802;38.578;-0.066;2023-08-24T03:52:37;24.20;99.90
43183;DHT22;28802;38.578;-0.066;2023-08-24T03:55:06;24.20;99.90
43183;DHT22;28802;38.578;-0.066;2023-08-24T03:57:32;24.20;99.90
43183;DHT22;28802;38.578;-0.066;2023-08-24T03:59:58;24.20;99.90
43183;DHT22;28802;38.578;-0.066;2023-08-24T04:02:24;24.20;99.90
43183;DHT22;28802;38.578;-0.066;2023-08-24T04:04:50;24.20;99.90
43183;DHT22;28802;38.578;-0.066;2023-08-24T04:07:16;24.20;99.90
43183;DHT22;28802;38.578;-0.066;2023-08-24T04:09:42;24.30;99.90
43183;DHT22;28802;38.578;-0.066;2023-08-24T04:12:08;24.20;99.90
43183;DHT22;28802;38.578;-0.066;2023-08-24T04:14:34;24.20;99.90
43183;DHT22;28802;38.578;-0.066;2023-08-24T04:17:00;24.20;99.90
43183;DHT22;28802;38.578;-0.066;2023-08-24T04:19:26;24.20;99.90
43183;DHT22;28802;38.578;-0.066;2023-08-24T04:21:52;24.30;99.90
43183;DHT22;28802;38.578;-0.066;2023-08-24T04:24:18;24.30;99.90
43183;DHT22;28802;38.578;-0.066;2023-08-24T04:26:44;24.40;99.90
43183;DHT22;28802;38.578;-0.066;2023-08-24T04:29:10;24.40;99.90
43183;DHT22;28802;38.578;-0.066;2023-08-24T04:31:36;24.30;99.90
43183;DHT22;28802;38.578;-0.066;2023-08-24T04:34:03;24.30;99.90
43183;DHT22;28802;38.578;-0.066;2023-08-24T04:36:30;24.20;99.90
43183;DHT22;28802;38.578;-0.066;2023-08-24T04:38:55;24.20;99.90
43183;DHT22;28802;38.578;-0.066;2023-08-24T04:41:21;24.30;99.90
43183;DHT22;28802;38.578;-0.066;2023-08-24T04:43:47;24.40;99.90
43183;DHT22;28802;38.578;-0.066;2023-08-24T04:46:13;24.40;99.90
43183;DHT22;28802;38.578;-0.066;2023-08-24T04:48:39;24.40;99.90
43183;DHT22;28802;38.578;-0.066;2023-08-24T04:51:05;24.30;99.90
43183;DHT22;28802;38.578;-0.066;2023-08-24T04:53:30;24.20;99.90
43183;DHT22;28802;38.578;-0.066;2023-08-24T04:55:56;24.10;99.90
43183;DHT22;28802;38.578;-0.066;2023-08-24T04:58:22;24.10;99.90
43183;DHT22;28802;38.578;-0.066;2023-08-24T05:00:49;24.20;99.90
43183;DHT22;28802;38.578;-0.066;2023-08-24T05:03:15;24.20;99.90
43183;DHT22;28802;38.578;-0.066;2023-08-24T05:05:41;24.20;99.90
43183;DHT22;28802;38.578;-0.066;2023-08-24T05:08:07;24.10;99.90
43183;DHT22;28802;38.578;-0.066;2023-08-24T05:10:36;24.10;99.90
43183;DHT22;28802;38.578;-0.066;2023-08-24T05:13:02;24.10;99.90
43183;DHT22;28802;38.578;-0.066;2023-08-24T05:15:28;24.10;99.90
43183;DHT22;28802;38.578;-0.066;2023-08-24T05:17:54;24.00;99.90
43183;DHT22;28802;38.578;-0.066;2023-08-24T05:20:22;23.90;99.90
43183;DHT22;28802;38.578;-0.066;2023-08-24T05:22:48;23.90;99.90
43183;DHT22;28802;38.578;-0.066;2023-08-24T05:25:14;24.00;99.90
43183;DHT22;28802;38.578;-0.066;2023-08-24T05:27:42;24.00;99.90
43183;DHT22;28802;38.578;-0.066;2023-08-24T05:30:08;24.10;99.90
43183;DHT22;28802;38.578;-0.066;2023-08-24T05:32:35;24.20;99.90
43183;DHT22;28802;38.578;-0.066;2023-08-24T05:35:05;24.20;99.90
43183;DHT22;28802;38.578;-0.066;2023-08-24T05:37:31;24.10;99.90
43183;DHT22;28802;38.578;-0.066;2023-08-24T05:39:57;24.10;99.90
43183;DHT22;28802;38.578;-0.066;2023-08-24T05:42:23;24.20;99.90
43183;DHT22;28802;38.578;-0.066;2023-08-24T05:44:50;24.40;99.90
43183;DHT22;28802;38.578;-0.066;2023-08-24T05:47:16;24.50;99.90
43183;DHT22;28802;38.578;-0.066;2023-08-24T05:49:42;24.80;99.90
43183;DHT22;28802;38.578;-0.066;2023-08-24T05:52:07;25.10;99.90
43183;DHT22;28802;38.578;-0.066;2023-08-24T05:54:35;25.30;99.90
43183;DHT22;28802;38.578;-0.066;2023-08-24T05:57:01;25.60;99.90
43183;DHT22;28802;38.578;-0.066;2023-08-24T05:59:27;25.90;99.90
43183;DHT22;28802;38.578;-0.066;2023-08-24T06:01:53;25.90;99.90
43183;DHT22;28802;38.578;-0.066;2023-08-24T06:04:19;25.60;99.90
43183;DHT22;28802;38.578;-0.066;2023-08-24T06:06:45;25.70;99.90
43183;DHT22;28802;38.578;-0.066;2023-08-24T06:09:11;26.00;99.90
43183;DHT22;28802;38.578;-0.066;2023-08-24T06:11:37;26.50;99.90
43183;DHT22;28802;38.578;-0.066;2023-08-24T06:14:03;26.90;99.90
43183;DHT22;28802;38.578;-0.066;2023-08-24T06:16:29;27.60;99.90
43183;DHT22;28802;38.578;-0.066;2023-08-24T06:18:55;28.10;99.90
43183;DHT22;28802;38.578;-0.066;2023-08-24T06:21:21;28.30;99.90
43183;DHT22;28802;38.578;-0.066;2023-08-24T06:23:47;28.30;99.90
43183;DHT22;28802;38.578;-0.066;2023-08-24T06:26:13;28.00;99.90
43183;DHT22;28802;38.578;-0.066;2023-08-24T06:28:39;28.20;99.90
43183;DHT22;28802;38.578;-0.066;2023-08-24T06:31:05;28.30;99.90
43183;DHT22;28802;38.578;-0.066;2023-08-24T06:33:36;29.10;99.90
43183;DHT22;28802;38.578;-0.066;2023-08-24T06:36:03;29.40;99.90
43183;DHT22;28802;38.578;-0.066;2023-08-24T06:38:33;29.20;99.90
43183;DHT22;28802;38.578;-0.066;2023-08-24T06:41:00;29.70;99.90
43183;DHT22;28802;38.578;-0.066;2023-08-24T06:43:28;30.60;99.90
43183;DHT22;28802;38.578;-0.066;2023-08-24T06:45:57;31.30;99.90
43183;DHT22;28802;38.578;-0.066;2023-08-24T06:48:23;31.90;99.90
43183;DHT22;28802;38.578;-0.066;2023-08-24T06:50:49;31.80;99.90
43183;DHT22;28802;38.578;-0.066;2023-08-24T06:53:15;31.40;99.90
43183;DHT22;28802;38.578;-0.066;2023-08-24T06:55:41;31.30;99.90
43183;DHT22;28802;38.578;-0.066;2023-08-24T06:58:06;31.30;99.90
43183;DHT22;28802;38.578;-0.066;2023-08-24T07:00:33;31.90;99.90
43183;DHT22;28802;38.578;-0.066;2023-08-24T07:03:01;32.20;99.90
43183;DHT22;28802;38.578;-0.066;2023-08-24T07:05:28;32.00;99.90
43183;DHT22;28802;38.578;-0.066;2023-08-24T07:07:54;31.60;99.90
43183;DHT22;28802;38.578;-0.066;2023-08-24T07:10:20;31.20;99.90
43183;DHT22;28802;38.578;-0.066;2023-08-24T07:12:46;31.30;99.90
43183;DHT22;28802;38.578;-0.066;2023-08-24T07:15:13;31.60;99.90
43183;DHT22;28802;38.578;-0.066;2023-08-24T07:17:39;32.10;99.90
43183;DHT22;28802;38.578;-0.066;2023-08-24T07:20:05;32.40;99.90
43183;DHT22;28802;38.578;-0.066;2023-08-24T07:22:32;32.60;99.90
43183;DHT22;28802;38.578;-0.066;2023-08-24T07:24:58;32.90;99.90
43183;DHT22;28802;38.578;-0.066;2023-08-24T07:27:24;33.20;99.90
43183;DHT22;28802;38.578;-0.066;2023-08-24T07:29:50;33.40;99.90
43183;DHT22;28802;38.578;-0.066;2023-08-24T07:32:16;34.20;99.90
43183;DHT22;28802;38.578;-0.066;2023-08-24T07:34:42;35.20;99.90
43183;DHT22;28802;38.578;-0.066;2023-08-24T07:37:08;35.90;99.90
43183;DHT22;28802;38.578;-0.066;2023-08-24T07:39:33;36.40;99.90
43183;DHT22;28802;38.578;-0.066;2023-08-24T07:41:59;36.70;99.90
43183;DHT22;28802;38.578;-0.066;2023-08-24T07:44:25;35.90;99.90
43183;DHT22;28802;38.578;-0.066;2023-08-24T07:46:52;35.40;99.90
43183;DHT22;28802;38.578;-0.066;2023-08-24T07:49:18;35.60;99.90
43183;DHT22;28802;38.578;-0.066;2023-08-24T07:51:43;35.30;99.90
43183;DHT22;28802;38.578;-0.066;2023-08-24T07:54:09;35.30;99.90
43183;DHT22;28802;38.578;-0.066;2023-08-24T07:56:36;35.20;99.90
43183;DHT22;28802;38.578;-0.066;2023-08-24T07:59:02;34.50;99.90
43183;DHT22;28802;38.578;-0.066;2023-08-24T08:01:28;34.20;99.90
43183;DHT22;28802;38.578;-0.066;2023-08-24T08:03:53;33.70;99.90
43183;DHT22;28802;38.578;-0.066;2023-08-24T08:06:19;33.60;99.90
43183;DHT22;28802;38.578;-0.066;2023-08-24T08:08:47;34.30;99.90
43183;DHT22;28802;38.578;-0.066;2023-08-24T08:11:16;34.40;99.90
43183;DHT22;28802;38.578;-0.066;2023-08-24T08:13:41;34.60;99.90
43183;DHT22;28802;38.578;-0.066;2023-08-24T08:16:07;34.30;99.90
43183;DHT22;28802;38.578;-0.066;2023-08-24T08:18:34;34.10;99.90
43183;DHT22;28802;38.578;-0.066;2023-08-24T08:21:00;34.30;99.90
43183;DHT22;28802;38.578;-0.066;2023-08-24T08:23:27;34.30;99.90
43183;DHT22;28802;38.578;-0.066;2023-08-24T08:25:53;32.90;99.90
43183;DHT22;28802;38.578;-0.066;2023-08-24T08:28:19;32.30;99.90
43183;DHT22;28802;38.578;-0.066;2023-08-24T08:30:48;32.50;99.90
43183;DHT22;28802;38.578;-0.066;2023-08-24T08:33:15;32.70;99.90
43183;DHT22;28802;38.578;-0.066;2023-08-24T08:35:41;33.10;99.90
43183;DHT22;28802;38.578;-0.066;2023-08-24T08:38:07;33.00;99.90
43183;DHT22;28802;38.578;-0.066;2023-08-24T08:40:37;33.50;99.90
43183;DHT22;28802;38.578;-0.066;2023-08-24T08:43:03;34.00;99.90
43183;DHT22;28802;38.578;-0.066;2023-08-24T08:45:29;34.40;99.90
43183;DHT22;28802;38.578;-0.066;2023-08-24T08:48:00;34.50;99.90
43183;DHT22;28802;38.578;-0.066;2023-08-24T08:50:27;34.60;99.90
43183;DHT22;28802;38.578;-0.066;2023-08-24T08:52:53;34.70;99.90
43183;DHT22;28802;38.578;-0.066;2023-08-24T08:55:19;35.40;99.90
43183;DHT22;28802;38.578;-0.066;2023-08-24T08:57:48;35.00;99.90
43183;DHT22;28802;38.578;-0.066;2023-08-24T09:00:16;34.40;99.90
43183;DHT22;28802;38.578;-0.066;2023-08-24T09:02:45;34.30;99.90
43183;DHT22;28802;38.578;-0.066;2023-08-24T09:05:14;34.20;99.90
43183;DHT22;28802;38.578;-0.066;2023-08-24T09:07:40;34.30;99.90
43183;DHT22;28802;38.578;-0.066;2023-08-24T09:10:08;34.80;99.90
43183;DHT22;28802;38.578;-0.066;2023-08-24T09:12:34;35.60;99.90
43183;DHT22;28802;38.578;-0.066;2023-08-24T09:15:04;35.60;99.90
43183;DHT22;28802;38.578;-0.066;2023-08-24T09:17:32;35.60;99.90
43183;DHT22;28802;38.578;-0.066;2023-08-24T09:20:00;35.50;99.90
43183;DHT22;28802;38.578;-0.066;2023-08-24T09:22:26;35.40;99.90
43183;DHT22;28802;38.578;-0.066;2023-08-24T09:24:52;34.80;99.90
43183;DHT22;28802;38.578;-0.066;2023-08-24T09:27:22;34.90;99.90
43183;DHT22;28802;38.578;-0.066;2023-08-24T09:29:52;35.50;99.90
43183;DHT22;28802;38.578;-0.066;2023-08-24T09:32:29;35.20;99.90
43183;DHT22;28802;38.578;-0.066;2023-08-24T09:34:55;35.40;99.90
43183;DHT22;28802;38.578;-0.066;2023-08-24T09:37:21;35.50;99.90
43183;DHT22;28802;38.578;-0.066;2023-08-24T09:39:47;36.10;99.90
43183;DHT22;28802;38.578;-0.066;2023-08-24T09:42:14;34.70;99.90
43183;DHT22;28802;38.578;-0.066;2023-08-24T09:44:46;34.20;99.90
43183;DHT22;28802;38.578;-0.066;2023-08-24T09:47:12;33.60;99.90
43183;DHT22;28802;38.578;-0.066;2023-08-24T09:49:38;33.80;99.90
43183;DHT22;28802;38.578;-0.066;2023-08-24T09:52:08;34.20;99.90
43183;DHT22;28802;38.578;-0.066;2023-08-24T09:54:37;33.90;99.90
43183;DHT22;28802;38.578;-0.066;2023-08-24T09:57:06;34.40;99.90
43183;DHT22;28802;38.578;-0.066;2023-08-24T09:59:35;34.30;99.90
43183;DHT22;28802;38.578;-0.066;2023-08-24T10:02:15;34.40;99.90
43183;DHT22;28802;38.578;-0.066;2023-08-24T10:04:42;35.30;99.90
43183;DHT22;28802;38.578;-0.066;2023-08-24T10:07:11;35.50;99.90
43183;DHT22;28802;38.578;-0.066;2023-08-24T10:12:19;36.10;99.90
43183;DHT22;28802;38.578;-0.066;2023-08-24T10:15:02;36.00;99.90
43183;DHT22;28802;38.578;-0.066;2023-08-24T10:17:33;35.20;99.90
43183;DHT22;28802;38.578;-0.066;2023-08-24T10:20:00;34.20;99.90
43183;DHT22;28802;38.578;-0.066;2023-08-24T10:22:29;34.20;99.90
43183;DHT22;28802;38.578;-0.066;2023-08-24T10:24:55;34.50;99.90
43183;DHT22;28802;38.578;-0.066;2023-08-24T10:27:23;35.10;99.90
43183;DHT22;28802;38.578;-0.066;2023-08-24T10:29:51;35.70;99.90
43183;DHT22;28802;38.578;-0.066;2023-08-24T10:32:21;35.40;99.90
43183;DHT22;28802;38.578;-0.066;2023-08-24T10:34:47;35.30;99.90
43183;DHT22;28802;38.578;-0.066;2023-08-24T10:37:13;35.30;99.90
43183;DHT22;28802;38.578;-0.066;2023-08-24T10:39:46;35.40;99.90
43183;DHT22;28802;38.578;-0.066;2023-08-24T10:42:13;35.30;99.90
43183;DHT22;28802;38.578;-0.066;2023-08-24T10:44:43;35.30;99.90
43183;DHT22;28802;38.578;-0.066;2023-08-24T10:47:14;33.90;99.90
43183;DHT22;28802;38.578;-0.066;2023-08-24T10:52:23;33.70;99.90
43183;DHT22;28802;38.578;-0.066;2023-08-24T10:54:50;33.50;99.90
43183;DHT22;28802;38.578;-0.066;2023-08-24T10:57:27;33.60;99.90
43183;DHT22;28802;38.578;-0.066;2023-08-24T11:00:11;33.60;99.90
43183;DHT22;28802;38.578;-0.066;2023-08-24T11:02:48;32.90;99.90
43183;DHT22;28802;38.578;-0.066;2023-08-24T11:05:19;33.20;99.90
43183;DHT22;28802;38.578;-0.066;2023-08-24T11:07:53;32.80;99.90
43183;DHT22;28802;38.578;-0.066;2023-08-24T11:10:21;32.70;99.90
43183;DHT22;28802;38.578;-0.066;2023-08-24T11:13:07;32.60;99.90
43183;DHT22;28802;38.578;-0.066;2023-08-24T11:15:45;32.50;99.90
43183;DHT22;28802;38.578;-0.066;2023-08-24T11:18:23;32.30;99.90
43183;DHT22;28802;38.578;-0.066;2023-08-24T11:20:54;32.20;99.90
43183;DHT22;28802;38.578;-0.066;2023-08-24T11:23:23;32.50;99.90
43183;DHT22;28802;38.578;-0.066;2023-08-24T11:25:51;32.70;99.90
43183;DHT22;28802;38.578;-0.066;2023-08-24T11:28:23;32.50;99.90
43183;DHT22;28802;38.578;-0.066;2023-08-24T11:30:49;32.60;99.90
43183;DHT22;28802;38.578;-0.066;2023-08-24T11:33:16;32.70;99.90
43183;DHT22;28802;38.578;-0.066;2023-08-24T11:35:46;32.50;99.90
43183;DHT22;28802;38.578;-0.066;2023-08-24T11:38:12;32.30;99.90
43183;DHT22;28802;38.578;-0.066;2023-08-24T11:40:42;32.70;99.90
43183;DHT22;28802;38.578;-0.066;2023-08-24T11:43:08;33.20;99.90
43183;DHT22;28802;38.578;-0.066;2023-08-24T11:45:37;33.70;99.90
43183;DHT22;28802;38.578;-0.066;2023-08-24T11:48:07;34.10;99.90
43183;DHT22;28802;38.578;-0.066;2023-08-24T11:50:33;33.60;99.90
43183;DHT22;28802;38.578;-0.066;2023-08-24T11:53:06;33.40;99.90
43183;DHT22;28802;38.578;-0.066;2023-08-24T11:55:32;33.60;99.90
43183;DHT22;28802;38.578;-0.066;2023-08-24T11:58:00;34.20;99.90
43183;DHT22;28802;38.578;-0.066;2023-08-24T12:00:26;34.40;99.90
43183;DHT22;28802;38.578;-0.066;2023-08-24T12:02:53;34.30;99.90
43183;DHT22;28802;38.578;-0.066;2023-08-24T12:05:23;34.50;99.90
43183;DHT22;28802;38.578;-0.066;2023-08-24T12:07:51;34.60;99.90
43183;DHT22;28802;38.578;-0.066;2023-08-24T12:10:17;35.20;99.90
43183;DHT22;28802;38.578;-0.066;2023-08-24T12:12:43;35.60;99.90
43183;DHT22;28802;38.578;-0.066;2023-08-24T12:15:15;34.80;99.90
43183;DHT22;28802;38.578;-0.066;2023-08-24T12:17:43;34.50;99.90
43183;DHT22;28802;38.578;-0.066;2023-08-24T12:20:20;33.70;99.90
43183;DHT22;28802;38.578;-0.066;2023-08-24T12:22:54;33.00;99.90
43183;DHT22;28802;38.578;-0.066;2023-08-24T12:25:23;33.10;99.90
43183;DHT22;28802;38.578;-0.066;2023-08-24T12:28:09;33.90;99.90
43183;DHT22;28802;38.578;-0.066;2023-08-24T12:30:51;34.30;99.90
43183;DHT22;28802;38.578;-0.066;2023-08-24T12:33:27;34.10;99.90
43183;DHT22;28802;38.578;-0.066;2023-08-24T12:35:54;34.10;99.90
43183;DHT22;28802;38.578;-0.066;2023-08-24T12:38:21;33.60;99.90
43183;DHT22;28802;38.578;-0.066;2023-08-24T12:40:48;32.70;99.90
43183;DHT22;28802;38.578;-0.066;2023-08-24T12:43:14;32.30;99.90
43183;DHT22;28802;38.578;-0.066;2023-08-24T12:45:40;32.90;99.90
43183;DHT22;28802;38.578;-0.066;2023-08-24T12:48:06;33.70;99.90
43183;DHT22;28802;38.578;-0.066;2023-08-24T12:50:33;34.30;99.90
43183;DHT22;28802;38.578;-0.066;2023-08-24T12:52:59;34.60;99.90
43183;DHT22;28802;38.578;-0.066;2023-08-24T12:55:27;34.50;99.90
43183;DHT22;28802;38.578;-0.066;2023-08-24T12:57:55;34.10;99.90
43183;DHT22;28802;38.578;-0.066;2023-08-24T13:00:21;33.50;99.90
43183;DHT22;28802;38.578;-0.066;2023-08-24T13:02:50;33.30;99.90
43183;DHT22;28802;38.578;-0.066;2023-08-24T13:05:17;33.30;99.90
43183;DHT22;28802;38.578;-0.066;2023-08-24T13:07:42;33.30;99.90
43183;DHT22;28802;38.578;-0.066;2023-08-24T13:10:09;33.50;99.90
43183;DHT22;28802;38.578;-0.066;2023-08-24T13:12:35;33.30;99.90
43183;DHT22;28802;38.578;-0.066;2023-08-24T13:15:02;33.00;99.90
43183;DHT22;28802;38.578;-0.066;2023-08-24T13:17:30;32.90;99.90
43183;DHT22;28802;38.578;-0.066;2023-08-24T13:19:56;32.50;99.90
43183;DHT22;28802;38.578;-0.066;2023-08-24T13:22:22;32.90;99.90
43183;DHT22;28802;38.578;-0.066;2023-08-24T13:24:48;33.70;99.90
43183;DHT22;28802;38.578;-0.066;2023-08-24T13:27:14;33.70;99.90
43183;DHT22;28802;38.578;-0.066;2023-08-24T13:29:40;33.80;99.90
43183;DHT22;28802;38.578;-0.066;2023-08-24T13:32:06;33.90;99.90
43183;DHT22;28802;38.578;-0.066;2023-08-24T13:34:33;33.90;99.90
43183;DHT22;28802;38.578;-0.066;2023-08-24T13:36:59;33.80;99.90
43183;DHT22;28802;38.578;-0.066;2023-08-24T13:39:28;33.80;99.90
43183;DHT22;28802;38.578;-0.066;2023-08-24T13:41:57;33.50;99.90
43183;DHT22;28802;38.578;-0.066;2023-08-24T13:44:23;33.50;99.90
43183;DHT22;28802;38.578;-0.066;2023-08-24T13:46:50;33.60;99.90
43183;DHT22;28802;38.578;-0.066;2023-08-24T13:49:17;33.40;99.90
43183;DHT22;28802;38.578;-0.066;2023-08-24T13:51:42;33.60;99.90
43183;DHT22;28802;38.578;-0.066;2023-08-24T13:54:19;33.50;99.90
43183;DHT22;28802;38.578;-0.066;2023-08-24T13:56:47;33.50;99.90
43183;DHT22;28802;38.578;-0.066;2023-08-24T13:59:14;33.10;99.90
43183;DHT22;28802;38.578;-0.066;2023-08-24T14:01:41;32.90;99.90
43183;DHT22;28802;38.578;-0.066;2023-08-24T14:04:07;32.70;99.90
43183;DHT22;28802;38.578;-0.066;2023-08-24T14:06:33;32.80;99.90
43183;DHT22;28802;38.578;-0.066;2023-08-24T14:09:06;33.00;99.90
43183;DHT22;28802;38.578;-0.066;2023-08-24T14:11:32;33.00;99.90
43183;DHT22;28802;38.578;-0.066;2023-08-24T14:13:58;33.10;99.90
43183;DHT22;28802;38.578;-0.066;2023-08-24T14:16:25;33.00;99.90
43183;DHT22;28802;38.578;-0.066;2023-08-24T14:18:52;32.40;99.90
43183;DHT22;28802;38.578;-0.066;2023-08-24T14:21:19;32.40;99.90
43183;DHT22;28802;38.578;-0.066;2023-08-24T14:23:46;32.50;99.90
43183;DHT22;28802;38.578;-0.066;2023-08-24T14:26:12;32.60;99.90
43183;DHT22;28802;38.578;-0.066;2023-08-24T14:28:52;32.80;99.90
43183;DHT22;28802;38.578;-0.066;2023-08-24T14:31:21;33.10;99.90
43183;DHT22;28802;38.578;-0.066;2023-08-24T14:33:47;33.10;99.90
43183;DHT22;28802;38.578;-0.066;2023-08-24T14:36:13;33.10;99.90
43183;DHT22;28802;38.578;-0.066;2023-08-24T14:38:39;32.70;99.90
43183;DHT22;28802;38.578;-0.066;2023-08-24T14:41:06;32.40;99.90
43183;DHT22;28802;38.578;-0.066;2023-08-24T14:43:33;32.50;99.90
43183;DHT22;28802;38.578;-0.066;2023-08-24T14:45:59;32.40;99.90
43183;DHT22;28802;38.578;-0.066;2023-08-24T14:48:25;32.40;99.90
43183;DHT22;28802;38.578;-0.066;2023-08-24T14:50:52;32.50;99.90
43183;DHT22;28802;38.578;-0.066;2023-08-24T14:53:18;32.70;99.90
43183;DHT22;28802;38.578;-0.066;2023-08-24T14:55:44;32.80;99.90
43183;DHT22;28802;38.578;-0.066;2023-08-24T14:58:10;32.90;99.90
43183;DHT22;28802;38.578;-0.066;2023-08-24T15:00:36;32.90;99.90
43183;DHT22;28802;38.578;-0.066;2023-08-24T15:03:02;33.10;99.90
43183;DHT22;28802;38.578;-0.066;2023-08-24T15:05:28;33.30;99.90
43183;DHT22;28802;38.578;-0.066;2023-08-24T15:07:54;33.20;99.90
43183;DHT22;28802;38.578;-0.066;2023-08-24T15:10:21;33.40;99.90
43183;DHT22;28802;38.578;-0.066;2023-08-24T15:12:47;33.30;99.90
43183;DHT22;28802;38.578;-0.066;2023-08-24T15:15:13;33.10;99.90
43183;DHT22;28802;38.578;-0.066;2023-08-24T15:17:44;33.10;99.90
43183;DHT22;28802;38.578;-0.066;2023-08-24T15:20:10;33.10;99.90
43183;DHT22;28802;38.578;-0.066;2023-08-24T15:22:39;32.70;99.90
43183;DHT22;28802;38.578;-0.066;2023-08-24T15:25:06;32.60;99.90
43183;DHT22;28802;38.578;-0.066;2023-08-24T15:27:33;32.60;99.90